Time;durP1;ratioP1;P1;durP2;ratioP2;P2;SDS_P1;SDS_P2;PMS_P1;PMS_P2;Temp;Humidity;BMP_temperature;BMP_pressure;BME280_temperature;BME280_humidity;BME280_pressure;Samples;Min_cycle;Max_cycle;Signal;HPM_P1;HPM_P2
2022/03/17 00:00:11;;;;;;;67.65;45.10;;;;;;;1.05;63.29;102199.47;3614527;77;20966;-68
2022/03/17 00:05:08;;;;;;;66.90;43.30;;;;;;;0.95;63.43;102204.27;3570775;78;22667;-68
2022/03/17 00:10:01;;;;;;;63.98;40.33;;;;;;;0.89;63.60;102206.33;3532414;77;21627;-68
2022/03/17 00:14:54;;;;;;;78.25;44.70;;;;;;;0.84;63.75;102206.34;3530037;78;21006;-68
2022/03/17 00:19:46;;;;;;;73.60;44.08;;;;;;;0.82;63.98;102198.92;3613048;77;20971;-69
2022/03/17 00:24:38;;;;;;;71.50;42.75;;;;;;;0.72;63.92;102197.30;3533193;77;20927;-68
2022/03/17 00:29:30;;;;;;;74.45;41.98;;;;;;;0.64;64.08;102204.73;3566400;77;20959;-68
2022/03/17 00:34:22;;;;;;;67.90;43.42;;;;;;;0.59;64.15;102200.91;3564584;77;20884;-68
2022/03/17 00:39:15;;;;;;;69.60;42.67;;;;;;;0.52;64.15;102208.47;3564059;79;20947;-68
2022/03/17 00:44:08;;;;;;;67.70;42.33;;;;;;;0.49;64.49;102204.41;3551950;77;20967;-68
2022/03/17 00:49:01;;;;;;;65.85;41.50;;;;;;;0.43;64.44;102209.92;3603904;77;21535;-67
2022/03/17 00:53:53;;;;;;;68.52;42.80;;;;;;;0.38;64.40;102213.37;3479428;77;20998;-68
2022/03/17 00:58:46;;;;;;;59.25;38.17;;;;;;;0.35;64.67;102222.06;3572993;77;20970;-67
2022/03/17 01:03:38;;;;;;;68.67;42.27;;;;;;;0.32;64.77;102221.84;3588383;77;21033;-68
2022/03/17 01:08:30;;;;;;;64.32;40.75;;;;;;;0.25;64.65;102222.09;3539732;77;21773;-68
2022/03/17 01:13:22;;;;;;;59.53;41.55;;;;;;;0.18;64.82;102219.80;3512164;77;20961;-68
2022/03/17 01:18:14;;;;;;;66.77;41.48;;;;;;;0.09;64.76;102216.09;3531641;77;20974;-68
2022/03/17 01:23:06;;;;;;;61.92;39.23;;;;;;;0.04;65.02;102212.64;3508087;77;21612;-68
2022/03/17 01:27:59;;;;;;;61.33;37.42;;;;;;;-0.04;65.03;102214.14;3528121;77;21004;-68
2022/03/17 01:32:51;;;;;;;64.42;38.10;;;;;;;-0.10;65.08;102224.27;3562216;77;21417;-68
2022/03/17 01:37:43;;;;;;;59.58;38.25;;;;;;;-0.13;65.24;102222.33;3558117;79;21962;-67
2022/03/17 01:42:35;;;;;;;58.87;36.48;;;;;;;-0.18;65.11;102227.44;3572815;77;21056;-68
2022/03/17 01:47:27;;;;;;;66.47;39.60;;;;;;;-0.24;65.06;102238.44;3487000;77;21582;-68
2022/03/17 01:52:20;;;;;;;60.30;35.50;;;;;;;-0.29;65.17;102240.98;3512016;77;21519;-67
2022/03/17 01:57:12;;;;;;;57.90;37.30;;;;;;;-0.35;65.44;102244.30;3549260;77;21531;-68
2022/03/17 02:02:08;;;;;;;61.05;37.17;;;;;;;-0.39;65.56;102235.48;3569725;79;21317;-68
2022/03/17 02:07:00;;;;;;;58.60;37.00;;;;;;;-0.45;65.38;102238.77;3583924;79;21091;-68
2022/03/17 02:17:03;;;;;;;57.67;36.65;;;;;;;-0.58;65.77;102241.55;3543334;77;20997;-68
2022/03/17 02:21:55;;;;;;;56.98;36.38;;;;;;;-0.66;65.71;102240.36;3593805;77;20985;-68
2022/03/17 02:26:49;;;;;;;57.40;36.35;;;;;;;-0.69;65.44;102243.95;3600904;77;20998;-67
2022/03/17 02:31:41;;;;;;;56.00;34.13;;;;;;;-0.73;65.85;102246.98;3562046;78;20966;-68
2022/03/17 02:36:33;;;;;;;54.63;32.17;;;;;;;-0.79;66.01;102244.44;3594841;77;20946;-68
2022/03/17 02:41:25;;;;;;;55.95;34.65;;;;;;;-0.83;66.16;102250.41;3546479;77;20978;-67
2022/03/17 02:46:19;;;;;;;60.23;35.10;;;;;;;-0.90;66.03;102254.08;3569799;78;21506;-68
2022/03/17 02:51:12;;;;;;;59.77;35.80;;;;;;;-0.99;65.55;102259.27;3634129;77;21460;-68
2022/03/17 02:56:04;;;;;;;59.38;34.73;;;;;;;-1.04;66.07;102263.45;3600524;77;21021;-68
2022/03/17 03:00:57;;;;;;;61.70;38.28;;;;;;;-1.09;66.32;102273.63;3589637;77;20997;-68
2022/03/17 03:05:49;;;;;;;82.90;41.75;;;;;;;-1.15;66.03;102277.81;3592628;77;21026;-67
2022/03/17 03:10:44;;;;;;;64.25;36.20;;;;;;;-1.19;66.42;102281.75;3604058;78;20993;-68
2022/03/17 03:15:37;;;;;;;65.30;39.70;;;;;;;-1.22;66.75;102290.41;3616826;77;21476;-68
2022/03/17 03:20:30;;;;;;;63.40;37.33;;;;;;;-1.27;66.48;102296.78;3586677;79;20970;-68
2022/03/17 03:25:23;;;;;;;60.65;35.58;;;;;;;-1.32;66.62;102300.56;3591613;79;21477;-68
2022/03/17 03:30:16;;;;;;;60.35;36.40;;;;;;;-1.37;66.36;102297.98;3549090;77;20888;-67
2022/03/17 03:40:19;;;;;;;64.20;37.13;;;;;;;-1.43;66.66;102317.81;3545449;77;20975;-68
2022/03/17 03:45:12;;;;;;;60.43;37.30;;;;;;;-1.48;66.69;102320.36;3590788;79;21440;-68
2022/03/17 03:50:05;;;;;;;68.83;37.58;;;;;;;-1.51;67.11;102327.72;3614931;77;20932;-68
2022/03/17 03:54:57;;;;;;;58.00;35.05;;;;;;;-1.56;66.89;102330.76;3559922;77;20912;-68
2022/03/17 03:59:49;;;;;;;70.83;42.03;;;;;;;-1.64;66.52;102339.73;3586163;78;20975;-68
2022/03/17 04:04:41;;;;;;;67.17;40.35;;;;;;;-1.72;66.92;102331.35;3590710;77;20943;-67
2022/03/17 04:09:39;;;;;;;62.08;37.05;;;;;;;-1.74;66.94;102340.13;3585954;77;20974;-68
2022/03/17 04:14:32;;;;;;;61.80;36.88;;;;;;;-1.78;66.31;102348.66;3548482;77;21507;-67
2022/03/17 04:19:25;;;;;;;58.38;34.53;;;;;;;-1.85;66.73;102342.47;3597547;77;20914;-67
2022/03/17 04:24:18;;;;;;;50.38;31.57;;;;;;;-1.85;66.89;102353.94;3642221;77;21035;-67
2022/03/17 04:29:11;;;;;;;51.88;30.92;;;;;;;-1.94;66.89;102358.69;3498685;77;20918;-67
2022/03/17 04:34:04;;;;;;;47.13;30.48;;;;;;;-1.95;66.72;102363.28;3551842;77;20993;-67
2022/03/17 04:38:56;;;;;;;49.03;29.37;;;;;;;-1.96;67.04;102369.13;3628627;77;21425;-67
2022/03/17 04:43:48;;;;;;;52.23;31.40;;;;;;;-1.96;66.99;102369.13;3528329;78;21001;-67
2022/03/17 04:48:41;;;;;;;48.15;28.87;;;;;;;-1.97;67.13;102376.27;3575416;77;21589;-67
2022/03/17 04:53:33;;;;;;;48.98;27.58;;;;;;;-1.98;67.11;102382.11;3543240;77;20994;-67
2022/03/17 04:58:26;;;;;;;44.13;27.48;;;;;;;-2.02;67.22;102387.68;3621752;77;20994;-68
2022/03/17 05:03:19;;;;;;;50.78;28.95;;;;;;;-2.02;66.80;102400.42;3584230;77;20974;-68
2022/03/17 05:08:11;;;;;;;45.03;28.35;;;;;;;-2.03;66.93;102406.27;3549857;77;21396;-67
2022/03/17 05:13:06;;;;;;;49.13;28.47;;;;;;;-2.01;67.10;102411.52;3584246;78;21455;-67
2022/03/17 05:17:59;;;;;;;48.05;27.37;;;;;;;-1.97;67.47;102414.51;3625293;77;20954;-67
2022/03/17 05:22:52;;;;;;;43.68;28.67;;;;;;;-1.93;67.43;102420.41;3438157;81;21475;-67
2022/03/17 05:27:48;;;;;;;48.35;29.42;;;;;;;-1.89;67.43;102420.32;3431239;80;21119;-67
2022/03/17 05:32:47;;;;;;;39.03;23.00;;;;;;;-1.79;67.38;102433.19;3461969;79;20920;-67
2022/03/17 05:37:40;;;;;;;45.23;26.95;;;;;;;-1.72;67.45;102435.92;3512188;80;21435;-67
2022/03/17 05:42:33;;;;;;;57.85;29.40;;;;;;;-1.66;67.70;102433.95;3506754;79;21143;-67
2022/03/17 05:47:25;;;;;;;48.42;28.87;;;;;;;-1.59;67.82;102435.05;3500860;79;20955;-69
2022/03/17 05:52:17;;;;;;;50.67;29.07;;;;;;;-1.46;68.05;102443.85;3529172;79;20998;-68
2022/03/17 05:57:10;;;;;;;47.25;29.45;;;;;;;-1.32;68.14;102456.59;3529886;79;21651;-68
2022/03/17 06:02:04;;;;;;;49.70;29.60;;;;;;;-1.22;68.10;102448.65;3423904;82;21076;-68
2022/03/17 06:06:56;;;;;;;54.65;29.50;;;;;;;-1.10;68.15;102450.55;3457897;80;21464;-68
2022/03/17 06:11:48;;;;;;;48.10;28.42;;;;;;;-0.97;68.53;102456.94;3437225;79;21529;-68
2022/03/17 06:16:40;;;;;;;49.13;29.52;;;;;;;-0.81;68.49;102463.41;3539545;79;22045;-68
2022/03/17 06:21:33;;;;;;;46.95;29.45;;;;;;;-0.64;68.79;102467.52;3496374;79;21519;-67
2022/03/17 06:26:25;;;;;;;46.18;29.15;;;;;;;-0.39;68.83;102461.27;3553691;77;21405;-68
2022/03/17 06:31:17;;;;;;;43.08;27.00;;;;;;;-0.24;68.99;102463.39;3588214;77;21494;-68
2022/03/17 06:36:10;;;;;;;55.88;32.33;;;;;;;-0.02;68.91;102460.70;3636111;77;21510;-68
2022/03/17 06:41:02;;;;;;;43.28;27.98;;;;;;;0.15;68.97;102470.22;3578523;77;20974;-67
2022/03/17 06:45:54;;;;;;;46.15;30.20;;;;;;;0.70;68.50;102466.00;3578112;77;21005;-68
2022/03/17 06:50:46;;;;;;;48.15;30.90;;;;;;;0.84;68.50;102466.25;3630380;78;20928;-68
2022/03/17 06:55:39;;;;;;;43.40;29.48;;;;;;;1.04;68.56;102475.24;3600691;77;20946;-68
2022/03/17 07:00:31;;;;;;;44.95;29.85;;;;;;;1.25;68.66;102482.91;3591942;77;20965;-68
2022/03/17 07:05:23;;;;;;;45.20;32.40;;;;;;;1.74;68.27;102492.07;3642820;77;20970;-68
2022/03/17 07:10:15;;;;;;;50.38;35.05;;;;;;;2.23;67.80;102485.72;3582175;77;20911;-68
2022/03/17 07:15:09;;;;;;;52.15;31.95;;;;;;;2.55;67.39;102479.64;3600388;78;21108;-67
2022/03/17 07:20:08;;;;;;;54.18;31.57;;;;;;;2.59;67.26;102488.08;3594013;78;20990;-68
2022/03/17 07:25:02;;;;;;;39.27;29.18;;;;;;;2.73;67.07;102490.84;3555731;78;21077;-68
2022/03/17 07:29:55;;;;;;;45.08;29.75;;;;;;;2.87;66.82;102494.08;3569124;77;21014;-68
2022/03/17 07:34:47;;;;;;;44.73;29.42;;;;;;;3.27;66.43;102498.38;3545150;77;20923;-68
2022/03/17 07:39:40;;;;;;;42.33;29.52;;;;;;;4.77;64.60;102494.54;3577846;77;21656;-68
2022/03/17 07:44:36;;;;;;;37.40;27.55;;;;;;;5.46;63.33;102499.21;3581173;78;20911;-68
2022/03/17 07:49:38;;;;;;;37.98;28.45;;;;;;;6.88;61.02;102488.79;3571330;77;20978;-68
2022/03/17 07:54:30;;;;;;;32.50;24.30;;;;;;;6.88;61.02;102488.79;3602536;77;21140;-68
2022/03/17 07:59:24;;;;;;;32.03;26.17;;;;;;;11.54;55.64;102479.53;3630698;78;21021;-69
2022/03/17 08:04:16;;;;;;;30.45;26.48;;;;;;;13.48;53.11;102489.38;3577783;77;21984;-68
2022/03/17 08:09:08;;;;;;;30.00;27.00;;;;;;;14.19;51.45;102489.89;3573381;78;20923;-68
2022/03/17 08:14:02;;;;;;;28.98;25.88;;;;;;;16.78;47.41;102495.97;3573642;77;21482;-68
2022/03/17 08:18:54;;;;;;;29.00;25.92;;;;;;;15.74;46.92;102497.58;3632971;77;20986;-68
2022/03/17 08:23:47;;;;;;;31.23;26.45;;;;;;;15.77;45.73;102500.32;3649594;77;20966;-68
2022/03/17 08:28:39;;;;;;;27.75;24.95;;;;;;;17.87;43.29;102493.09;3537159;77;22177;-68
2022/03/17 08:33:32;;;;;;;31.52;28.15;;;;;;;17.57;43.13;102504.42;3606089;77;20987;-69
2022/03/17 08:38:24;;;;;;;29.85;26.48;;;;;;;19.77;41.75;102498.74;3627041;77;20946;-69
2022/03/17 08:43:16;;;;;;;27.27;23.85;;;;;;;19.27;39.82;102499.19;3605353;77;21440;-68
2022/03/17 08:53:02;;;;;;;28.27;22.77;;;;;;;16.75;40.75;102509.03;3531681;77;21584;-68
2022/03/17 08:57:56;;;;;;;29.10;25.43;;;;;;;16.11;40.20;102510.29;3573468;78;21490;-69
2022/03/17 09:02:48;;;;;;;30.57;24.00;;;;;;;15.13;40.76;102513.55;3604126;77;20923;-69
2022/03/17 09:07:40;;;;;;;25.65;22.87;;;;;;;15.29;40.30;102515.25;3574077;78;21523;-67
2022/03/17 09:12:35;;;;;;;26.70;23.80;;;;;;;15.38;39.34;102511.55;3583798;77;20974;-68
2022/03/17 09:17:27;;;;;;;26.23;23.42;;;;;;;14.59;39.83;102516.39;3629056;78;21859;-68
2022/03/17 09:22:19;;;;;;;29.65;23.70;;;;;;;14.16;40.76;102511.15;3591342;78;21021;-69
2022/03/17 09:27:12;;;;;;;24.85;22.13;;;;;;;14.75;40.22;102521.22;3596466;77;20895;-68
2022/03/17 09:32:05;;;;;;;24.02;20.35;;;;;;;16.19;38.94;102514.86;3594960;76;20936;-68
2022/03/17 09:36:58;;;;;;;23.98;21.35;;;;;;;16.81;38.33;102517.45;3531681;77;20936;-69
2022/03/17 09:41:51;;;;;;;22.45;20.05;;;;;;;17.77;36.69;102517.88;3560535;77;21030;-69
2022/03/17 09:46:44;;;;;;;23.07;20.60;;;;;;;18.59;35.63;102509.41;3518319;77;20967;-68
2022/03/17 09:51:38;;;;;;;23.57;21.10;;;;;;;17.71;36.83;102510.78;3565608;78;21495;-71
2022/03/17 09:56:30;;;;;;;21.97;19.35;;;;;;;18.99;35.80;102504.20;3609227;78;20888;-70
2022/03/17 10:01:26;;;;;;;23.50;21.10;;;;;;;21.38;32.75;102504.66;3501506;77;21249;-70
2022/03/17 10:06:20;;;;;;;22.30;20.12;;;;;;;22.52;31.74;102501.40;3599281;77;21377;-67
2022/03/17 10:11:16;;;;;;;20.60;18.45;;;;;;;22.70;31.00;102501.75;3582059;77;20986;-67
2022/03/17 10:16:16;;;;;;;20.08;18.20;;;;;;;23.47;30.00;102505.68;3567220;78;21555;-68
2022/03/17 10:21:12;;;;;;;21.35;19.05;;;;;;;24.32;29.96;102495.97;3620439;78;21724;-67
2022/03/17 10:26:05;;;;;;;17.62;15.93;;;;;;;25.66;28.67;102490.44;3546327;77;20960;-67
2022/03/17 10:31:05;;;;;;;15.05;13.65;;;;;;;25.47;26.67;102496.56;3585348;77;20979;-67
2022/03/17 10:36:21;;;;;;;15.58;13.98;;;;;;;22.37;27.57;102503.64;3561968;78;22053;-67
2022/03/17 10:41:12;;;;;;;15.32;13.83;;;;;;;19.05;29.71;102513.48;3562313;77;20948;-67
2022/03/17 10:46:16;;;;;;;18.02;13.25;;;;;;;18.32;30.54;102515.22;3563205;78;21637;-67
2022/03/17 10:51:07;;;;;;;20.75;17.42;;;;;;;16.18;31.61;102516.14;3587243;77;21492;-66
2022/03/17 10:56:15;;;;;;;18.62;16.00;;;;;;;14.47;33.78;102519.09;3592383;78;20982;-66
2022/03/17 11:01:08;;;;;;;18.37;16.02;;;;;;;17.85;32.42;102502.71;3527600;78;20947;-66
2022/03/17 11:06:04;;;;;;;17.48;15.88;;;;;;;20.04;30.42;102501.56;3574143;78;20931;-66
2022/03/17 11:10:57;;;;;;;18.40;16.60;;;;;;;21.24;29.74;102489.65;3581993;77;20941;-67
2022/03/17 11:16:22;;;;;;;17.50;15.80;;;;;;;21.66;29.27;102477.34;3592251;77;21011;-68
2022/03/17 11:21:22;;;;;;;22.15;14.90;;;;;;;22.23;27.36;102474.97;3520778;80;21092;-66
2022/03/17 11:26:20;;;;;;;15.68;13.70;;;;;;;21.97;27.70;102479.92;3482431;80;21527;-66
2022/03/17 11:31:19;;;;;;;15.68;14.00;;;;;;;22.23;28.02;102478.94;3425552;81;36564;-66
2022/03/17 11:36:21;;;;;;;15.15;13.50;;;;;;;22.62;26.95;102469.98;3488263;80;21104;-66
2022/03/17 11:41:16;;;;;;;15.88;13.58;;;;;;;22.54;27.13;102474.44;3496275;80;21452;-66
2022/03/17 11:46:15;;;;;;;15.28;13.68;;;;;;;20.11;28.25;102491.03;3484214;80;21448;-68
2022/03/17 11:51:11;;;;;;;17.45;12.53;;;;;;;18.82;28.73;102482.92;3430189;80;21041;-68
2022/03/17 11:56:04;;;;;;;14.63;12.13;;;;;;;17.95;28.62;102487.92;3448930;81;25229;-66
2022/03/17 12:01:29;;;;;;;13.60;11.88;;;;;;;18.49;29.79;102487.33;3455413;81;20962;-66
2022/03/17 12:06:27;;;;;;;13.60;12.23;;;;;;;18.32;29.46;102483.18;3450491;81;20967;-66
2022/03/17 12:11:25;;;;;;;18.37;14.15;;;;;;;17.67;29.64;102486.18;3457773;80;21203;-66
2022/03/17 12:16:23;;;;;;;13.35;11.83;;;;;;;17.23;30.45;102478.87;3455482;81;21481;-66
2022/03/17 12:21:15;;;;;;;18.98;13.98;;;;;;;16.98;30.30;102479.73;3529426;79;20980;-66
2022/03/17 12:26:07;;;;;;;14.05;11.80;;;;;;;16.45;31.16;102483.47;3559068;79;20981;-66
2022/03/17 12:30:59;;;;;;;14.93;12.03;;;;;;;15.60;31.13;102486.35;3529623;79;21493;-66
2022/03/17 12:36:10;;;;;;;17.07;12.73;;;;;;;15.04;32.14;102489.70;3533398;79;20953;-66
2022/03/17 12:41:01;;;;;;;13.98;12.23;;;;;;;14.20;33.07;102493.39;3556546;79;21437;-66
2022/03/17 12:45:56;;;;;;;15.90;11.90;;;;;;;13.89;32.92;102479.38;3471798;79;20960;-66
2022/03/17 12:50:48;;;;;;;15.25;12.68;;;;;;;13.15;34.03;102493.48;3555073;79;21525;-66
2022/03/17 12:55:41;;;;;;;12.82;11.35;;;;;;;13.17;34.58;102493.53;3546138;79;21083;-66
2022/03/17 13:00:37;;;;;;;14.90;12.00;;;;;;;13.41;35.19;102483.48;3521148;79;21151;-67
2022/03/17 13:15:52;;;;;;;12.35;11.05;;;;;;;14.30;32.97;102492.41;3578490;78;21040;-66
2022/03/17 13:20:48;;;;;;;12.63;11.33;;;;;;;14.26;33.06;102487.05;3513355;78;21003;-67
2022/03/17 13:25:41;;;;;;;14.73;12.25;;;;;;;14.07;33.23;102490.39;3488903;78;22300;-66
2022/03/17 13:30:36;;;;;;;12.43;11.15;;;;;;;13.87;33.18;102488.91;3449639;80;21016;-66
2022/03/17 13:35:38;;;;;;;13.00;10.70;;;;;;;13.51;33.34;102499.94;3492928;80;20993;-66
2022/03/17 13:40:52;;;;;;;11.33;9.93;;;;;;;13.72;33.09;102491.50;3541610;78;20977;-65
2022/03/17 13:45:48;;;;;;;13.03;10.35;;;;;;;13.52;33.44;102490.84;3526556;78;21232;-68
2022/03/17 13:50:51;;;;;;;12.20;9.63;;;;;;;13.06;32.96;102494.89;3519686;78;21937;-68
2022/03/17 13:55:49;;;;;;;30.43;14.23;;;;;;;12.29;33.84;102498.61;3569049;78;21039;-69
2022/03/17 14:00:43;;;;;;;16.73;10.43;;;;;;;12.47;33.71;102508.85;3537307;79;20946;-69
2022/03/17 14:05:35;;;;;;;14.45;10.78;;;;;;;12.75;33.92;102501.60;3500105;78;20973;-69
2022/03/17 14:10:28;;;;;;;8.85;7.87;;;;;;;12.79;33.87;102503.52;3511876;79;20980;-69
2022/03/17 14:15:20;;;;;;;12.47;8.50;;;;;;;12.89;33.49;102499.08;3530197;78;21006;-69
2022/03/17 14:20:12;;;;;;;12.78;8.68;;;;;;;12.64;33.39;102502.94;3519209;79;22012;-69
2022/03/17 14:25:05;;;;;;;16.10;8.60;;;;;;;12.50;33.39;102493.29;3461345;79;21026;-69
2022/03/17 14:29:58;;;;;;;9.68;7.40;;;;;;;12.18;33.44;102497.77;3440229;79;20962;-69
2022/03/17 14:34:49;;;;;;;9.63;7.60;;;;;;;12.05;33.72;102496.80;3431631;81;21015;-68
2022/03/17 14:39:43;;;;;;;9.23;7.10;;;;;;;11.99;33.81;102499.18;3419938;79;21677;-68
2022/03/17 14:44:36;;;;;;;12.98;7.25;;;;;;;11.90;33.66;102506.22;3552494;79;21490;-68
2022/03/17 14:49:28;;;;;;;12.05;6.72;;;;;;;11.87;33.81;102502.56;3527594;79;20989;-69
2022/03/17 14:54:20;;;;;;;7.25;6.42;;;;;;;11.82;33.53;102508.48;3490163;79;20935;-70
2022/03/17 14:59:12;;;;;;;6.67;5.60;;;;;;;11.52;33.47;102502.00;3496648;79;21005;-69
2022/03/17 15:04:04;;;;;;;12.35;6.85;;;;;;;11.34;33.65;102508.23;3506688;79;21880;-68
2022/03/17 15:08:57;;;;;;;9.08;6.62;;;;;;;11.15;33.68;102509.57;3503449;80;20971;-69
2022/03/17 15:13:50;;;;;;;7.62;5.70;;;;;;;11.12;33.90;102510.73;3471455;79;21013;-70
2022/03/17 15:18:42;;;;;;;9.60;6.37;;;;;;;11.03;34.03;102513.40;3454082;79;20993;-69
2022/03/17 15:23:34;;;;;;;10.78;7.15;;;;;;;10.87;34.10;102518.75;3585011;78;21482;-68
2022/03/17 15:33:37;;;;;;;7.58;6.03;;;;;;;10.44;33.82;102524.61;3552687;79;21516;-68
2022/03/17 15:38:30;;;;;;;16.62;7.42;;;;;;;10.23;34.13;102521.47;3578966;79;21021;-69
2022/03/17 15:43:23;;;;;;;11.20;5.80;;;;;;;9.91;34.51;102535.53;3577337;78;21020;-70
2022/03/17 15:48:15;;;;;;;11.15;6.00;;;;;;;9.63;34.50;102551.03;3589421;78;20999;-68
2022/03/17 15:53:07;;;;;;;10.82;5.20;;;;;;;9.37;35.01;102547.11;3586832;79;21501;-68
2022/03/17 15:58:00;;;;;;;7.65;5.83;;;;;;;9.12;35.47;102536.78;3485318;79;21612;-68
2022/03/17 16:02:52;;;;;;;13.90;5.55;;;;;;;8.85;35.21;102553.06;3579438;79;21470;-68
2022/03/17 16:07:45;;;;;;;10.75;5.35;;;;;;;8.52;35.67;102545.67;3584057;79;21396;-69
2022/03/17 16:17:49;;;;;;;7.53;5.00;;;;;;;7.53;36.88;102554.70;3541668;78;21139;-70
2022/03/17 16:22:46;;;;;;;16.57;5.15;;;;;;;7.53;36.88;102554.70;3523558;79;20976;-68
2022/03/17 16:27:38;;;;;;;15.32;6.25;;;;;;;7.25;37.60;102563.03;3604081;79;22117;-69
2022/03/17 16:32:31;;;;;;;9.15;4.78;;;;;;;6.98;38.05;102568.73;3528816;79;21070;-68
2022/03/17 16:37:24;;;;;;;9.88;4.08;;;;;;;6.71;38.48;102569.22;3572019;79;21493;-68
2022/03/17 16:42:17;;;;;;;13.78;5.47;;;;;;;6.24;38.92;102579.63;3552466;79;21764;-68
2022/03/17 16:47:09;;;;;;;12.58;4.28;;;;;;;6.02;39.81;102595.39;3552451;79;21553;-69
2022/03/17 16:52:02;;;;;;;17.23;6.67;;;;;;;6.02;39.81;102595.39;3574414;79;21476;-68
2022/03/17 16:56:58;;;;;;;8.78;4.87;;;;;;;5.78;39.98;102595.02;3530991;78;20924;-69
2022/03/17 17:01:49;;;;;;;52.30;19.62;;;;;;;5.56;40.18;102602.63;3561701;78;21038;-68
2022/03/17 17:06:42;;;;;;;52.30;21.40;;;;;;;5.31;40.43;102606.14;3612901;78;22019;-69
2022/03/17 17:11:36;;;;;;;47.40;19.92;;;;;;;5.10;40.68;102599.50;3539721;78;22099;-69
2022/03/17 17:16:28;;;;;;;60.03;23.18;;;;;;;4.88;41.17;102603.16;3547949;79;21036;-68
2022/03/17 17:21:20;;;;;;;68.17;29.07;;;;;;;4.69;41.45;102606.52;3564076;77;20896;-69
2022/03/17 17:31:25;;;;;;;43.52;14.53;;;;;;;4.25;42.08;102610.23;3628204;79;21481;-69
2022/03/17 17:36:17;;;;;;;30.37;14.18;;;;;;;4.06;42.65;102622.17;3570770;79;21023;-68
2022/03/17 17:41:11;;;;;;;31.93;13.95;;;;;;;3.90;42.56;102623.08;3582452;77;21994;-68
2022/03/17 17:46:06;;;;;;;34.25;16.85;;;;;;;3.73;42.99;102619.25;3508653;78;21504;-69
2022/03/17 17:51:00;;;;;;;65.90;17.50;;;;;;;3.58;43.09;102628.01;3617116;79;20949;-69
2022/03/17 17:55:53;;;;;;;12.47;7.80;;;;;;;3.44;43.76;102632.98;3619592;78;20942;-68
2022/03/17 18:00:46;;;;;;;16.32;8.20;;;;;;;3.28;43.64;102632.98;3562246;78;20980;-68
2022/03/17 18:05:39;;;;;;;26.57;9.10;;;;;;;3.16;44.09;102647.05;3578601;77;22121;-68
2022/03/17 18:10:31;;;;;;;14.23;7.12;;;;;;;2.95;44.13;102644.61;3546071;78;21080;-68
2022/03/17 18:15:32;;;;;;;16.45;6.72;;;;;;;2.81;44.37;102658.93;3569330;78;21493;-69
2022/03/17 18:20:27;;;;;;;15.48;6.95;;;;;;;2.70;44.76;102670.39;3506162;79;21753;-68
2022/03/17 18:25:20;;;;;;;19.00;7.53;;;;;;;2.53;45.08;102673.80;3519245;79;20961;-69
2022/03/17 18:30:13;;;;;;;24.80;9.08;;;;;;;2.41;45.13;102674.97;3528094;79;21004;-68
2022/03/17 18:35:07;;;;;;;24.55;7.92;;;;;;;2.29;45.60;102690.28;3523834;79;21582;-68
2022/03/17 18:40:00;;;;;;;36.73;10.58;;;;;;;2.20;45.63;102686.97;3505350;79;20965;-68
2022/03/17 18:44:52;;;;;;;38.02;11.35;;;;;;;2.08;45.93;102696.22;3542699;79;21403;-68
2022/03/17 18:49:46;;;;;;;38.13;12.05;;;;;;;1.97;46.21;102685.42;3491029;78;21558;-68
2022/03/17 18:54:38;;;;;;;60.33;16.32;;;;;;;1.82;46.46;102694.92;3547776;78;21012;-69
2022/03/17 18:59:30;;;;;;;60.83;12.47;;;;;;;1.67;46.76;102691.08;3563893;78;21018;-68
2022/03/17 19:04:23;;;;;;;29.18;14.58;;;;;;;1.57;47.12;102700.03;3555803;78;20927;-68
2022/03/17 19:09:15;;;;;;;29.67;11.68;;;;;;;1.45;47.27;102706.28;3599805;78;21493;-68
2022/03/17 19:14:08;;;;;;;28.25;11.43;;;;;;;1.34;47.54;102704.08;3530559;78;20969;-69
2022/03/17 19:19:01;;;;;;;21.93;11.50;;;;;;;1.26;47.70;102717.92;3567335;78;21146;-68
2022/03/17 19:23:54;;;;;;;28.70;11.03;;;;;;;1.14;47.80;102717.73;3505840;78;20981;-69
2022/03/17 19:28:46;;;;;;;41.77;13.70;;;;;;;1.02;48.06;102715.38;3533040;78;21477;-68
2022/03/17 19:33:38;;;;;;;64.70;17.25;;;;;;;0.93;47.85;102726.99;3515675;78;21079;-68
2022/03/17 19:38:30;;;;;;;44.38;15.88;;;;;;;0.85;48.22;102721.59;3512497;78;21708;-68
2022/03/17 19:43:22;;;;;;;44.95;16.42;;;;;;;0.76;48.60;102734.09;3525277;78;20939;-68
2022/03/17 19:48:15;;;;;;;46.63;15.13;;;;;;;0.67;48.61;102737.51;3536971;78;21390;-68
2022/03/17 19:53:07;;;;;;;36.88;14.47;;;;;;;0.57;48.80;102731.92;3550533;79;21518;-68
2022/03/17 19:57:59;;;;;;;30.65;14.65;;;;;;;0.49;48.82;102744.44;3502920;79;21498;-68
2022/03/17 20:02:52;;;;;;;32.83;14.20;;;;;;;0.44;49.03;102743.12;3522334;79;21447;-68
2022/03/17 20:07:44;;;;;;;32.70;15.60;;;;;;;0.38;49.20;102752.03;3540312;79;21528;-68
2022/03/17 20:17:49;;;;;;;47.95;19.05;;;;;;;0.29;49.43;102760.55;3585543;79;21023;-67
2022/03/17 20:22:42;;;;;;;33.78;17.05;;;;;;;0.27;49.52;102762.05;3604275;77;20963;-68
2022/03/17 20:27:35;;;;;;;36.05;17.95;;;;;;;0.21;49.30;102772.63;3554820;78;22663;-68
2022/03/17 20:32:27;;;;;;;35.50;18.45;;;;;;;0.13;49.31;102773.59;3559784;78;20913;-68
2022/03/17 20:37:19;;;;;;;41.45;18.67;;;;;;;0.04;49.29;102782.98;3599051;77;21030;-68
2022/03/17 20:42:12;;;;;;;45.28;19.35;;;;;;;-0.05;49.49;102793.26;3559191;77;20984;-68
2022/03/17 20:47:05;;;;;;;43.50;20.82;;;;;;;-0.15;49.68;102804.27;3521066;77;21025;-68
2022/03/17 20:52:00;;;;;;;33.38;18.10;;;;;;;-0.17;49.94;102805.78;3609660;77;20996;-68
2022/03/17 20:56:52;;;;;;;27.60;15.38;;;;;;;-0.18;49.77;102815.48;3594404;77;20957;-68
2022/03/17 21:01:44;;;;;;;34.63;17.05;;;;;;;-0.25;49.85;102823.33;3529001;77;21007;-68
2022/03/17 21:06:36;;;;;;;44.10;18.70;;;;;;;-0.35;49.84;102827.07;3627549;77;21009;-68
2022/03/17 21:11:28;;;;;;;36.73;16.50;;;;;;;-0.42;50.02;102829.02;3570297;77;21025;-68
2022/03/17 21:16:20;;;;;;;30.52;15.63;;;;;;;-0.51;50.07;102835.82;3518499;77;21262;-68
2022/03/17 21:21:18;;;;;;;30.45;15.45;;;;;;;-0.61;50.33;102845.55;3564293;78;20973;-68
2022/03/17 21:26:06;;;;;;;25.95;15.08;;;;;;;-0.66;50.43;102849.67;3606204;77;21500;-68
2022/03/17 21:30:58;;;;;;;26.95;15.28;;;;;;;-0.70;50.89;102852.69;3569098;78;20977;-68
2022/03/17 21:35:52;;;;;;;26.00;13.98;;;;;;;-0.72;50.89;102845.27;3584718;78;20949;-68
2022/03/17 21:40:44;;;;;;;29.63;15.32;;;;;;;-0.79;50.95;102851.42;3569925;78;21500;-68
2022/03/17 21:45:36;;;;;;;29.63;16.23;;;;;;;-0.92;50.97;102853.16;3584303;79;21140;-68
2022/03/17 21:50:28;;;;;;;27.02;15.32;;;;;;;-1.06;51.13;102866.23;3576519;77;21029;-68
2022/03/17 21:55:21;;;;;;;30.88;17.27;;;;;;;-1.19;51.32;102876.52;3580650;79;20984;-68
2022/03/17 22:00:14;;;;;;;34.92;19.32;;;;;;;-1.16;51.54;102884.48;3529426;79;21455;-68
2022/03/17 22:05:09;;;;;;;28.77;15.83;;;;;;;-1.09;51.63;102888.55;3536239;79;21020;-68
2022/03/17 22:10:01;;;;;;;27.75;16.73;;;;;;;-1.06;51.34;102886.66;3530281;77;20996;-68
2022/03/17 22:14:53;;;;;;;30.88;15.10;;;;;;;-1.07;51.31;102884.84;3587923;78;21536;-68
2022/03/17 22:19:46;;;;;;;28.32;16.45;;;;;;;-1.11;51.50;102877.64;3614642;78;21599;-68
2022/03/17 22:24:38;;;;;;;28.45;14.70;;;;;;;-1.17;51.51;102877.94;3513484;79;21073;-68
2022/03/17 22:29:30;;;;;;;30.68;15.53;;;;;;;-1.27;51.61;102877.42;3472442;80;20908;-68
2022/03/17 22:34:23;;;;;;;31.65;16.37;;;;;;;-1.42;51.40;102885.70;3472372;79;20950;-68
2022/03/17 22:39:15;;;;;;;29.75;16.65;;;;;;;-1.56;51.61;102892.35;3482004;80;20977;-68
2022/03/17 22:44:11;;;;;;;29.82;17.52;;;;;;;-1.56;52.23;102889.45;3429215;81;20962;-68
2022/03/17 22:49:07;;;;;;;26.73;15.95;;;;;;;-1.58;52.11;102893.47;3465292;81;20978;-68
2022/03/17 22:54:01;;;;;;;28.80;16.62;;;;;;;-1.65;52.14;102889.77;3482977;79;21018;-69
2022/03/17 22:58:54;;;;;;;31.93;15.80;;;;;;;-1.67;52.23;102900.20;3467635;79;21008;-68
2022/03/17 23:03:50;;;;;;;28.92;15.50;;;;;;;-1.79;52.30;102904.98;3511972;79;22213;-68
2022/03/17 23:08:42;;;;;;;32.20;17.20;;;;;;;-1.86;52.74;102904.17;3461567;80;20911;-68